Vitarte, Peru
Current Conditions -  °F | °C
As of 5:00 AM on Monday 20 Oct 2014 (Local Time) from SPIM Reporting Station
Overcast Overcast  
Wind Chill: 63°   Ceiling: 1200
Heat Index: 63°   Visibility: 6mi
Dew Point: 57°   Wind: 9mph
Humidity: 82%   Direction: 160°SSE
Pressure: 29.94"   Gusts: NA
Location:  12.04°S, 76.93°W
Report Text: SPIM 201000Z 16008KT 9999 OVC012 17/14 Q1014 NOSIG RMK PP000
Loading
Personal Weather Stations






























Interactive Weather Map
Tropical Storm Tracking
New forecast layout! Learn more

10-Day Weather Forecast

Advertisements
Track Severe Weather on mobile